Time;durP1;ratioP1;P1;durP2;ratioP2;P2;SDS_P1;SDS_P2;PMS_P1;PMS_P2;Temp;Humidity;BMP_temperature;BMP_pressure;BME280_temperature;BME280_humidity;BME280_pressure;Samples;Min_cycle;Max_cycle;Signal;HPM_P1;HPM_P2
2024/01/30 00:03:15;;;;;;;21.48;19.70;;;;;;;4.03;100.00;102756.84;10108311;28;20505;-69
2024/01/30 00:08:11;;;;;;;21.42;19.48;;;;;;;4.00;100.00;102761.63;10106373;28;20736;-70
2024/01/30 00:13:08;;;;;;;20.88;19.27;;;;;;;3.93;100.00;102760.06;10106752;28;20042;-70
2024/01/30 00:18:04;;;;;;;21.08;18.77;;;;;;;3.87;100.00;102761.75;10105405;28;20063;-70
2024/01/30 00:23:01;;;;;;;21.85;19.75;;;;;;;3.81;100.00;102749.13;10101747;28;20173;-69
2024/01/30 00:27:58;;;;;;;21.17;19.48;;;;;;;3.81;100.00;102746.44;10108455;28;20061;-69
2024/01/30 00:32:54;;;;;;;21.23;19.23;;;;;;;3.84;100.00;102735.16;10092110;28;20047;-70
2024/01/30 00:37:51;;;;;;;20.20;18.60;;;;;;;3.75;100.00;102733.78;10107860;28;20043;-72
2024/01/30 00:42:47;;;;;;;21.98;20.13;;;;;;;3.70;100.00;102734.44;10097551;28;20055;-69
2024/01/30 00:47:44;;;;;;;21.95;19.92;;;;;;;3.66;100.00;102738.63;10110351;28;20159;-70
2024/01/30 00:52:41;;;;;;;21.90;20.10;;;;;;;3.68;100.00;102724.91;10097653;28;20046;-71
2024/01/30 00:57:38;;;;;;;21.25;19.42;;;;;;;3.64;100.00;102729.09;10097873;28;20057;-73
2024/01/30 01:02:35;;;;;;;20.85;19.00;;;;;;;3.64;100.00;102734.50;10104013;28;20130;-71
2024/01/30 01:07:32;;;;;;;21.02;19.33;;;;;;;3.66;100.00;102727.81;10108955;28;20631;-71
2024/01/30 01:12:28;;;;;;;21.98;19.88;;;;;;;3.64;100.00;102734.50;10108918;28;20058;-70
2024/01/30 01:17:25;;;;;;;21.75;19.55;;;;;;;3.71;100.00;102740.69;10112707;28;20771;-69
2024/01/30 01:22:21;;;;;;;22.27;20.05;;;;;;;3.70;100.00;102739.03;10110143;28;20457;-69
2024/01/30 01:27:18;;;;;;;21.38;19.67;;;;;;;3.76;100.00;102738.13;10110268;28;20047;-71
2024/01/30 01:32:15;;;;;;;20.88;19.27;;;;;;;3.79;100.00;102737.69;10107036;28;20054;-71
2024/01/30 01:37:11;;;;;;;20.15;18.55;;;;;;;3.80;100.00;102733.94;10114922;28;20101;-70
2024/01/30 01:42:07;;;;;;;20.80;19.13;;;;;;;3.74;100.00;102729.44;10106126;28;20133;-71
2024/01/30 01:47:04;;;;;;;21.10;19.38;;;;;;;3.72;100.00;102726.13;10105654;28;20112;-71
2024/01/30 01:52:01;;;;;;;20.75;18.98;;;;;;;3.75;100.00;102725.66;10103134;28;20684;-73
2024/01/30 01:56:57;;;;;;;19.65;18.15;;;;;;;3.76;100.00;102716.47;10104302;28;20561;-71
2024/01/30 02:01:55;;;;;;;21.05;19.23;;;;;;;3.76;100.00;102721.91;10103109;28;20051;-71
2024/01/30 02:06:52;;;;;;;20.45;18.67;;;;;;;3.86;100.00;102711.41;10105534;28;20039;-71
2024/01/30 02:11:49;;;;;;;20.95;18.95;;;;;;;3.90;100.00;102696.38;10108204;28;20549;-71
2024/01/30 02:16:45;;;;;;;20.63;18.90;;;;;;;3.91;100.00;102681.78;10106905;28;20047;-71
2024/01/30 02:21:42;;;;;;;18.92;17.42;;;;;;;4.02;100.00;102679.41;10107146;28;20094;-73
2024/01/30 02:26:38;;;;;;;21.23;18.20;;;;;;;4.02;100.00;102672.09;10105363;28;20045;-70
2024/01/30 02:31:35;;;;;;;20.63;18.95;;;;;;;3.99;100.00;102667.97;10107289;28;20054;-71
2024/01/30 02:36:31;;;;;;;20.50;18.67;;;;;;;4.00;100.00;102669.59;10115688;28;20066;-71
2024/01/30 02:41:28;;;;;;;21.38;19.67;;;;;;;3.96;100.00;102667.56;10094633;28;20074;-72
2024/01/30 02:46:24;;;;;;;21.85;19.73;;;;;;;3.90;100.00;102663.91;10110687;28;20058;-73
2024/01/30 02:51:21;;;;;;;21.35;19.35;;;;;;;3.91;100.00;102662.84;10113704;28;20129;-72
2024/01/30 02:56:17;;;;;;;21.48;19.58;;;;;;;3.89;100.00;102662.22;10100049;28;20054;-72
2024/01/30 03:01:14;;;;;;;21.27;19.42;;;;;;;3.83;100.00;102652.31;10099393;28;20053;-72
2024/01/30 03:06:11;;;;;;;20.70;18.90;;;;;;;3.76;100.00;102656.94;10110204;28;20125;-72
2024/01/30 03:11:07;;;;;;;21.15;19.27;;;;;;;3.75;100.00;102650.72;10104467;28;20050;-72
2024/01/30 03:16:04;;;;;;;21.02;19.27;;;;;;;3.70;100.00;102647.06;10105006;28;20128;-73
2024/01/30 03:21:01;;;;;;;22.08;20.05;;;;;;;3.55;100.00;102645.53;10097051;28;20137;-73
2024/01/30 03:25:57;;;;;;;21.75;19.85;;;;;;;3.57;100.00;102650.69;10097485;28;20052;-72
2024/01/30 03:30:54;;;;;;;21.45;19.48;;;;;;;3.48;100.00;102644.78;10106410;28;20051;-72
2024/01/30 03:35:50;;;;;;;21.45;19.63;;;;;;;3.44;100.00;102651.69;10107184;28;20053;-72
2024/01/30 03:40:47;;;;;;;21.95;20.08;;;;;;;3.38;100.00;102647.16;10106437;28;20460;-71
2024/01/30 03:45:43;;;;;;;22.52;20.52;;;;;;;3.36;100.00;102641.13;10110203;28;20113;-71
2024/01/30 03:50:40;;;;;;;22.70;20.25;;;;;;;3.33;100.00;102636.19;10110169;28;20563;-72
2024/01/30 03:55:36;;;;;;;22.95;20.70;;;;;;;3.30;100.00;102628.50;10124849;28;20585;-70
2024/01/30 04:00:33;;;;;;;23.88;21.77;;;;;;;3.33;100.00;102619.94;10100880;28;20105;-71
2024/01/30 04:05:29;;;;;;;23.30;21.02;;;;;;;3.32;100.00;102618.31;10100503;28;20048;-71
2024/01/30 04:10:26;;;;;;;22.95;21.10;;;;;;;3.22;100.00;102628.78;10101843;28;20054;-72
2024/01/30 04:15:22;;;;;;;23.83;21.63;;;;;;;3.23;100.00;102619.66;10096455;28;20455;-72
2024/01/30 04:20:19;;;;;;;23.10;21.25;;;;;;;3.24;100.00;102622.09;10090292;28;20057;-72
2024/01/30 04:25:15;;;;;;;23.40;21.35;;;;;;;3.22;100.00;102631.50;10099895;28;20051;-73
2024/01/30 04:30:12;;;;;;;24.42;22.23;;;;;;;3.17;100.00;102632.97;10079824;28;20051;-71
2024/01/30 04:35:09;;;;;;;24.75;22.60;;;;;;;3.15;100.00;102626.13;10107183;28;20066;-72
2024/01/30 04:40:08;;;;;;;24.67;22.35;;;;;;;3.18;100.00;102644.63;10116957;28;20065;-72
2024/01/30 04:45:05;;;;;;;23.73;21.80;;;;;;;3.14;100.00;102643.41;10114556;28;20228;-73
2024/01/30 04:50:04;;;;;;;24.73;22.52;;;;;;;3.13;100.00;102647.16;10110381;28;20065;-74
2024/01/30 04:55:01;;;;;;;25.42;23.10;;;;;;;3.08;100.00;102637.00;10108246;28;20082;-72
2024/01/30 04:59:58;;;;;;;25.40;23.15;;;;;;;3.08;100.00;102639.69;10100871;28;20055;-73
2024/01/30 05:04:54;;;;;;;24.80;22.65;;;;;;;3.11;100.00;102628.47;10104205;28;20105;-76
2024/01/30 05:09:51;;;;;;;25.70;23.23;;;;;;;3.12;100.00;102635.50;10105746;28;20070;-73
2024/01/30 05:14:49;;;;;;;25.00;22.67;;;;;;;3.19;100.00;102618.44;10105641;28;20051;-73
2024/01/30 05:19:45;;;;;;;26.88;23.77;;;;;;;3.12;100.00;102616.59;10103454;28;20549;-75
2024/01/30 05:24:42;;;;;;;28.10;25.33;;;;;;;3.22;100.00;102628.78;10101276;28;20458;-80
2024/01/30 05:29:40;;;;;;;26.42;24.23;;;;;;;3.27;100.00;102621.69;10107243;28;20042;-76
2024/01/30 05:34:36;;;;;;;27.58;25.25;;;;;;;3.31;100.00;102616.63;10096416;28;20059;-76
2024/01/30 05:39:33;;;;;;;26.73;24.52;;;;;;;3.32;100.00;102613.72;10104256;28;20082;-77
2024/01/30 05:44:29;;;;;;;27.50;25.20;;;;;;;3.33;100.00;102603.72;10101752;28;20043;-75
2024/01/30 05:49:26;;;;;;;28.98;26.48;;;;;;;3.26;100.00;102592.97;10095201;28;20047;-75
2024/01/30 05:54:23;;;;;;;27.05;24.88;;;;;;;3.22;100.00;102590.94;10096331;28;20081;-75
2024/01/30 05:59:19;;;;;;;27.02;24.65;;;;;;;3.16;100.00;102589.97;10091326;28;20129;-73
2024/01/30 06:04:15;;;;;;;26.92;24.50;;;;;;;3.14;100.00;102587.47;10100449;28;20499;-73
2024/01/30 06:09:12;;;;;;;27.83;25.02;;;;;;;3.14;100.00;102579.38;10104515;28;20142;-72
2024/01/30 06:14:09;;;;;;;27.02;24.60;;;;;;;3.15;100.00;102581.00;10107285;28;20043;-73
2024/01/30 06:19:05;;;;;;;26.63;24.33;;;;;;;3.26;100.00;102559.72;10110534;28;20051;-72
2024/01/30 06:24:02;;;;;;;25.83;23.58;;;;;;;3.37;100.00;102567.09;10104192;28;20054;-73
2024/01/30 06:28:59;;;;;;;25.75;23.48;;;;;;;3.42;100.00;102559.13;10103168;28;20047;-73
2024/01/30 06:33:55;;;;;;;26.80;24.10;;;;;;;3.46;100.00;102554.94;10109788;28;20113;-73
2024/01/30 06:38:52;;;;;;;25.65;23.15;;;;;;;3.54;100.00;102546.50;10103335;28;20054;-73
2024/01/30 06:43:49;;;;;;;27.63;24.98;;;;;;;3.65;100.00;102552.22;10107678;28;20042;-74
2024/01/30 06:48:46;;;;;;;26.45;24.05;;;;;;;3.64;100.00;102540.56;10108727;28;20097;-73
2024/01/30 06:53:45;;;;;;;27.27;24.98;;;;;;;3.69;100.00;102545.28;10107427;28;20398;-72
2024/01/30 06:58:42;;;;;;;28.33;25.85;;;;;;;3.69;100.00;102553.41;10107193;28;20881;-73
2024/01/30 07:03:38;;;;;;;26.60;24.27;;;;;;;3.62;100.00;102552.66;10101832;28;20039;-73
2024/01/30 07:08:35;;;;;;;27.00;24.33;;;;;;;3.53;100.00;102544.84;10109261;28;20047;-72
2024/01/30 07:13:32;;;;;;;26.85;24.38;;;;;;;3.44;100.00;102548.91;10101847;28;20126;-72
2024/01/30 07:18:29;;;;;;;26.88;24.50;;;;;;;3.38;100.00;102544.38;10101441;28;20111;-72
2024/01/30 07:23:26;;;;;;;27.40;24.88;;;;;;;3.36;100.00;102549.19;10104397;28;20453;-72
2024/01/30 07:28:22;;;;;;;29.02;26.02;;;;;;;3.44;100.00;102540.81;10108605;28;20573;-72
2024/01/30 07:33:19;;;;;;;28.50;25.55;;;;;;;3.44;100.00;102521.88;10105016;28;20043;-73
2024/01/30 07:38:15;;;;;;;28.23;25.42;;;;;;;3.52;100.00;102537.78;10107031;28;20047;-72
2024/01/30 07:43:12;;;;;;;27.60;25.15;;;;;;;3.64;100.00;102523.50;10108477;28;20446;-72
2024/01/30 07:48:09;;;;;;;27.85;25.25;;;;;;;3.76;100.00;102527.09;10097204;28;20043;-73
2024/01/30 07:53:05;;;;;;;28.48;25.42;;;;;;;3.80;100.00;102534.53;10111566;28;20576;-73
2024/01/30 07:58:03;;;;;;;31.23;25.52;;;;;;;3.88;100.00;102524.47;10106561;28;20046;-72
2024/01/30 08:03:00;;;;;;;27.65;25.08;;;;;;;3.91;100.00;102532.94;10110807;28;20130;-73
2024/01/30 08:07:56;;;;;;;27.83;25.25;;;;;;;3.96;100.00;102527.66;10099653;28;20046;-73
2024/01/30 08:12:53;;;;;;;29.10;26.08;;;;;;;3.98;100.00;102522.03;10107218;28;20049;-73
2024/01/30 08:17:49;;;;;;;28.20;25.67;;;;;;;4.03;100.00;102524.03;10112462;28;20129;-72
2024/01/30 08:22:46;;;;;;;27.92;25.45;;;;;;;4.09;100.00;102531.25;10106804;28;20047;-73
2024/01/30 08:27:42;;;;;;;27.67;25.08;;;;;;;4.17;100.00;102528.22;10107576;28;20055;-70
2024/01/30 08:32:39;;;;;;;28.85;26.13;;;;;;;4.24;100.00;102523.50;10106634;28;20055;-73
2024/01/30 08:37:36;;;;;;;27.17;24.58;;;;;;;4.32;100.00;102525.09;10107841;28;20575;-72
2024/01/30 08:42:35;;;;;;;28.92;25.85;;;;;;;4.38;100.00;102514.13;10108997;28;20582;-72
2024/01/30 08:47:31;;;;;;;30.08;26.63;;;;;;;4.49;100.00;102515.22;10105883;28;20057;-73
2024/01/30 08:52:28;;;;;;;29.17;26.23;;;;;;;4.52;100.00;102497.69;10102224;28;20042;-73
2024/01/30 08:57:28;;;;;;;28.30;25.63;;;;;;;4.61;100.00;102499.81;10107036;28;20065;-74
2024/01/30 09:02:24;;;;;;;28.23;25.45;;;;;;;4.77;100.00;102490.16;10110085;28;20042;-75
2024/01/30 09:07:21;;;;;;;29.83;26.63;;;;;;;4.93;100.00;102479.69;10094455;28;20043;-72
2024/01/30 09:12:17;;;;;;;27.95;25.08;;;;;;;5.08;100.00;102474.56;10105572;28;21140;-72
2024/01/30 09:17:14;;;;;;;29.70;25.98;;;;;;;5.19;100.00;102481.88;10112889;28;20596;-73
2024/01/30 09:22:10;;;;;;;27.25;24.63;;;;;;;5.35;100.00;102491.16;10097905;28;20042;-72
2024/01/30 09:27:07;;;;;;;27.92;24.63;;;;;;;5.43;100.00;102498.09;10116446;28;20070;-73
2024/01/30 09:32:05;;;;;;;28.33;25.42;;;;;;;5.54;100.00;102516.25;10112637;28;20711;-72
2024/01/30 09:37:02;;;;;;;28.27;25.25;;;;;;;5.56;100.00;102524.97;10107032;28;20122;-72
2024/01/30 09:42:18;;;;;;;26.95;24.45;;;;;;;5.58;100.00;102525.56;10107555;28;20051;-73
2024/01/30 09:47:16;;;;;;;27.48;24.65;;;;;;;5.77;100.00;102530.81;10112723;28;20114;-75
2024/01/30 09:52:13;;;;;;;28.40;25.70;;;;;;;5.81;100.00;102523.84;10118852;28;20050;-73
2024/01/30 09:57:11;;;;;;;29.45;25.42;;;;;;;5.92;100.00;102520.28;10117284;28;20055;-73
2024/01/30 10:02:08;;;;;;;27.70;25.15;;;;;;;5.99;100.00;102510.13;10101262;28;20047;-73
2024/01/30 10:07:05;;;;;;;28.10;25.23;;;;;;;6.14;100.00;102503.31;10107872;28;20886;-74
2024/01/30 10:12:03;;;;;;;27.90;25.10;;;;;;;6.22;100.00;102494.75;10094760;28;20491;-73
2024/01/30 10:17:01;;;;;;;28.35;23.85;;;;;;;6.34;100.00;102490.09;10094993;28;20387;-72
2024/01/30 10:22:03;;;;;;;25.85;23.17;;;;;;;6.65;100.00;102502.28;10106213;28;20114;-72
2024/01/30 10:27:00;;;;;;;26.45;23.83;;;;;;;6.68;100.00;102498.22;10113119;28;20116;-72
2024/01/30 10:32:00;;;;;;;27.83;25.00;;;;;;;6.84;100.00;102496.56;10098427;28;20051;-73
2024/01/30 10:37:06;;;;;;;24.88;22.48;;;;;;;6.86;100.00;102492.53;10116338;28;20501;-73
2024/01/30 10:42:05;;;;;;;26.25;23.88;;;;;;;7.06;100.00;102478.41;10103214;28;20117;-72
2024/01/30 10:47:08;;;;;;;25.58;22.95;;;;;;;7.04;100.00;102474.31;10111883;28;20050;-73
2024/01/30 10:52:05;;;;;;;24.63;22.17;;;;;;;7.03;100.00;102473.50;10108358;28;20105;-73
2024/01/30 10:57:04;;;;;;;24.50;22.13;;;;;;;7.15;100.00;102476.09;10111514;28;20520;-73
2024/01/30 11:02:01;;;;;;;26.15;22.45;;;;;;;7.36;100.00;102471.75;10109658;28;20145;-72
2024/01/30 11:06:58;;;;;;;26.13;23.73;;;;;;;7.40;100.00;102472.84;10107536;28;20066;-73
2024/01/30 11:12:00;;;;;;;25.95;23.45;;;;;;;7.50;100.00;102477.63;10105110;28;20046;-73
2024/01/30 11:16:59;;;;;;;25.65;23.00;;;;;;;7.52;100.00;102472.72;10105202;28;20040;-72
2024/01/30 11:21:57;;;;;;;24.40;21.13;;;;;;;7.55;100.00;102472.22;10105172;28;20042;-73
2024/01/30 11:26:58;;;;;;;25.48;22.83;;;;;;;7.62;100.00;102459.25;10108832;28;20050;-74
2024/01/30 11:31:56;;;;;;;24.33;21.98;;;;;;;7.62;100.00;102470.13;10104883;28;20053;-71
2024/01/30 11:36:59;;;;;;;23.77;21.58;;;;;;;7.64;100.00;102467.97;10108501;28;20129;-73
2024/01/30 11:41:58;;;;;;;25.15;21.20;;;;;;;7.61;100.00;102465.75;10105697;28;20518;-74
2024/01/30 11:46:55;;;;;;;25.67;23.02;;;;;;;7.69;100.00;102459.88;10100139;28;20047;-72
2024/01/30 11:51:53;;;;;;;24.77;21.77;;;;;;;7.74;100.00;102465.34;10111441;28;20043;-72
2024/01/30 11:56:49;;;;;;;24.77;22.48;;;;;;;7.78;100.00;102463.78;10089870;28;20071;-74
2024/01/30 12:01:46;;;;;;;24.33;22.02;;;;;;;7.87;100.00;102460.59;10090990;28;20051;-73
2024/01/30 12:06:43;;;;;;;25.75;22.70;;;;;;;7.84;100.00;102466.53;10103797;28;20074;-72
2024/01/30 12:11:46;;;;;;;24.25;21.95;;;;;;;7.87;100.00;102449.72;10109862;28;20046;-73
2024/01/30 12:16:42;;;;;;;22.00;19.95;;;;;;;7.88;100.00;102459.50;10092104;28;20062;-73
2024/01/30 12:21:39;;;;;;;23.50;21.35;;;;;;;7.93;100.00;102448.66;10108634;28;20057;-72
2024/01/30 12:26:35;;;;;;;24.30;22.05;;;;;;;7.92;100.00;102452.47;10101971;28;20058;-73
2024/01/30 12:31:32;;;;;;;24.05;21.65;;;;;;;7.92;100.00;102447.84;10107630;28;20061;-73
2024/01/30 12:36:31;;;;;;;24.88;22.20;;;;;;;8.01;100.00;102440.03;10109020;28;20046;-73
2024/01/30 12:41:28;;;;;;;23.45;21.25;;;;;;;8.03;100.00;102440.59;10104941;28;20129;-72
2024/01/30 12:46:28;;;;;;;24.52;22.42;;;;;;;8.18;100.00;102440.72;10105104;28;20782;-74
2024/01/30 12:51:25;;;;;;;25.02;22.45;;;;;;;8.31;100.00;102442.22;10102073;28;20049;-74
2024/01/30 12:56:22;;;;;;;25.13;22.50;;;;;;;8.38;100.00;102442.00;10098522;28;20499;-73
2024/01/30 13:01:18;;;;;;;24.92;22.25;;;;;;;8.50;100.00;102442.66;10115579;28;20085;-73
2024/01/30 13:06:15;;;;;;;25.63;21.20;;;;;;;8.63;100.00;102436.75;10113919;28;20053;-74
2024/01/30 13:11:12;;;;;;;24.23;21.67;;;;;;;8.69;100.00;102442.22;10123564;28;20093;-72
2024/01/30 13:16:17;;;;;;;23.90;21.67;;;;;;;8.76;100.00;102446.38;10117738;28;20077;-73
2024/01/30 13:21:13;;;;;;;23.52;21.33;;;;;;;8.76;100.00;102445.56;10113493;28;20058;-72
2024/01/30 13:26:10;;;;;;;22.13;19.98;;;;;;;8.79;100.00;102439.56;10108936;28;20043;-72
2024/01/30 13:31:06;;;;;;;23.60;21.30;;;;;;;8.77;100.00;102447.19;10113179;28;20059;-73
2024/01/30 13:36:03;;;;;;;24.42;21.70;;;;;;;8.81;100.00;102445.56;10118749;28;20047;-73
2024/01/30 13:41:00;;;;;;;22.65;20.65;;;;;;;8.83;100.00;102446.13;10099117;28;20063;-73
2024/01/30 13:45:57;;;;;;;22.90;20.70;;;;;;;8.83;100.00;102443.41;10107390;28;20074;-74
2024/01/30 13:50:54;;;;;;;23.45;20.98;;;;;;;8.84;100.00;102445.03;10112777;28;20046;-73
2024/01/30 13:55:51;;;;;;;23.33;21.10;;;;;;;8.87;100.00;102444.53;10115005;28;20042;-73
2024/01/30 14:00:47;;;;;;;23.77;21.42;;;;;;;8.90;100.00;102435.81;10115800;28;20922;-74
2024/01/30 14:05:44;;;;;;;22.88;20.50;;;;;;;8.93;100.00;102435.28;10113699;28;20061;-72
2024/01/30 14:10:41;;;;;;;24.83;22.30;;;;;;;8.93;100.00;102424.34;10112987;28;20062;-73
2024/01/30 14:15:38;;;;;;;22.90;20.85;;;;;;;8.99;100.00;102422.50;10112513;28;20089;-72
2024/01/30 14:20:34;;;;;;;23.15;20.83;;;;;;;9.02;100.00;102428.22;10110651;28;20046;-73
2024/01/30 14:25:31;;;;;;;23.20;21.08;;;;;;;9.05;100.00;102416.81;10095637;28;20106;-73
2024/01/30 14:30:27;;;;;;;22.92;20.13;;;;;;;9.04;100.00;102415.16;10111310;28;20741;-74
2024/01/30 14:35:24;;;;;;;23.25;21.00;;;;;;;9.04;100.00;102409.69;10105790;28;20502;-73
2024/01/30 14:40:21;;;;;;;27.10;21.50;;;;;;;9.05;100.00;102416.81;10113437;28;20595;-74
2024/01/30 14:45:17;;;;;;;25.05;22.73;;;;;;;9.09;100.00;102411.63;10100298;28;20406;-73
2024/01/30 14:50:16;;;;;;;24.88;22.77;;;;;;;9.08;100.00;102414.63;10111273;28;20102;-73
2024/01/30 14:55:13;;;;;;;25.38;22.80;;;;;;;9.12;100.00;102413.84;10092110;28;20051;-73
2024/01/30 15:00:10;;;;;;;25.35;22.95;;;;;;;9.17;100.00;102421.22;10111900;28;20153;-73
2024/01/30 15:05:06;;;;;;;25.52;22.88;;;;;;;9.17;100.00;102413.03;10108847;28;20059;-73
2024/01/30 15:10:03;;;;;;;24.73;22.30;;;;;;;9.18;100.00;102425.56;10108610;28;20047;-74
2024/01/30 15:15:00;;;;;;;23.50;21.60;;;;;;;9.21;100.00;102425.03;10112115;28;20102;-73
2024/01/30 15:19:58;;;;;;;24.90;22.42;;;;;;;9.22;100.00;102421.22;10117446;28;20160;-73
2024/01/30 15:24:55;;;;;;;25.50;22.75;;;;;;;9.23;100.00;102422.88;10099275;28;20050;-72
2024/01/30 15:29:51;;;;;;;23.60;21.30;;;;;;;9.23;100.00;102428.31;10111117;28;20055;-74
2024/01/30 15:34:48;;;;;;;27.02;22.42;;;;;;;9.26;100.00;102438.72;10099247;28;20093;-71
2024/01/30 15:39:45;;;;;;;23.85;21.38;;;;;;;9.27;100.00;102432.16;10095907;28;20433;-73
2024/01/30 15:44:41;;;;;;;24.38;21.90;;;;;;;9.29;100.00;102438.19;10096847;28;20039;-72
2024/01/30 15:49:38;;;;;;;24.67;22.25;;;;;;;9.24;100.00;102440.91;10085128;28;20047;-73
2024/01/30 15:54:35;;;;;;;24.65;22.02;;;;;;;9.27;100.00;102435.72;10096772;28;20042;-71
2024/01/30 15:59:31;;;;;;;26.50;23.65;;;;;;;9.26;100.00;102433.28;10108846;28;20047;-73
2024/01/30 16:04:28;;;;;;;25.55;22.92;;;;;;;9.16;100.00;102444.13;10094531;28;20047;-74
2024/01/30 16:09:24;;;;;;;25.90;23.17;;;;;;;9.12;100.00;102437.53;10102097;28;20055;-73
2024/01/30 16:14:21;;;;;;;26.02;23.27;;;;;;;9.08;100.00;102439.19;10099203;28;20140;-73
2024/01/30 16:19:18;;;;;;;27.17;24.27;;;;;;;8.98;100.00;102448.97;10099136;28;20066;-73
2024/01/30 16:24:15;;;;;;;26.52;23.80;;;;;;;8.95;100.00;102456.84;10091549;28;20043;-73
2024/01/30 16:29:11;;;;;;;25.77;23.42;;;;;;;9.00;100.00;102449.50;10101647;28;20705;-71
2024/01/30 16:34:08;;;;;;;26.67;23.73;;;;;;;9.11;100.00;102457.75;10105700;28;20039;-72
2024/01/30 16:39:04;;;;;;;26.10;23.73;;;;;;;9.15;100.00;102458.88;10105170;28;20105;-71
2024/01/30 16:44:01;;;;;;;25.88;23.17;;;;;;;9.14;100.00;102458.03;10096761;28;20465;-71
2024/01/30 16:48:58;;;;;;;25.38;23.15;;;;;;;9.15;100.00;102453.41;10105583;28;20043;-73
2024/01/30 16:53:55;;;;;;;25.42;22.88;;;;;;;9.24;100.00;102451.81;10098025;28;20711;-71
2024/01/30 16:58:52;;;;;;;26.60;23.70;;;;;;;9.20;100.00;102459.69;10103683;28;20113;-71
2024/01/30 17:03:48;;;;;;;27.30;24.48;;;;;;;9.26;100.00;102460.56;10095757;28;20039;-71
2024/01/30 17:08:45;;;;;;;26.15;22.67;;;;;;;9.32;100.00;102469.56;10096428;28;20506;-71
2024/01/30 17:13:42;;;;;;;25.17;22.58;;;;;;;9.39;100.00;102468.25;10109214;28;20054;-72
2024/01/30 17:18:38;;;;;;;25.48;22.58;;;;;;;9.35;100.00;102467.16;10091314;28;20054;-71
2024/01/30 17:23:37;;;;;;;24.20;21.73;;;;;;;9.39;100.00;102465.50;10104654;28;20086;-72
2024/01/30 17:28:33;;;;;;;25.20;23.02;;;;;;;9.40;100.00;102464.44;10099255;28;20427;-72
2024/01/30 17:33:30;;;;;;;24.58;22.38;;;;;;;9.45;100.00;102475.38;10114300;28;20522;-75
2024/01/30 17:38:27;;;;;;;24.05;21.83;;;;;;;9.45;100.00;102480.00;10098499;28;20926;-72
2024/01/30 17:43:24;;;;;;;27.85;21.27;;;;;;;9.48;100.00;102474.81;10102681;28;20059;-73
2024/01/30 17:48:20;;;;;;;25.08;22.42;;;;;;;9.46;100.00;102487.91;10104406;28;20463;-72
2024/01/30 17:53:17;;;;;;;23.63;21.42;;;;;;;9.48;100.00;102484.94;10102022;28;20130;-73
2024/01/30 17:58:13;;;;;;;24.17;21.63;;;;;;;9.44;100.00;102490.09;10099528;28;20686;-71
2024/01/30 18:03:10;;;;;;;22.98;20.67;;;;;;;9.43;100.00;102488.47;10101591;28;20606;-73
2024/01/30 18:08:07;;;;;;;23.55;21.63;;;;;;;9.35;100.00;102494.44;10091814;28;20058;-72
2024/01/30 18:13:05;;;;;;;24.85;21.63;;;;;;;9.35;100.00;102497.19;10093993;28;20042;-72
2024/01/30 18:18:02;;;;;;;24.58;21.15;;;;;;;9.31;100.00;102500.72;10105406;28;20157;-74
2024/01/30 18:22:58;;;;;;;25.33;21.77;;;;;;;9.29;100.00;102498.22;10100604;28;20089;-74
2024/01/30 18:27:55;;;;;;;22.70;19.40;;;;;;;9.28;100.00;102499.31;10095295;28;20155;-73
2024/01/30 18:32:52;;;;;;;21.67;19.35;;;;;;;9.25;100.00;102497.13;10086446;28;20118;-73
2024/01/30 18:37:49;;;;;;;20.13;18.23;;;;;;;9.22;100.00;102503.13;10099587;28;20577;-73
2024/01/30 18:42:46;;;;;;;19.10;17.08;;;;;;;9.22;100.00;102497.66;10099190;28;20348;-75
2024/01/30 18:47:43;;;;;;;18.58;16.60;;;;;;;9.21;100.00;102501.44;10109875;28;20046;-74
2024/01/30 18:52:39;;;;;;;16.13;14.77;;;;;;;9.19;100.00;102495.44;10107668;28;20050;-73
2024/01/30 18:57:37;;;;;;;17.73;16.33;;;;;;;9.14;100.00;102506.34;10091242;28;20039;-72
2024/01/30 19:02:34;;;;;;;21.15;16.85;;;;;;;9.11;100.00;102501.41;10102812;28;20399;-73
2024/01/30 19:07:30;;;;;;;18.13;16.40;;;;;;;9.08;100.00;102512.88;10088188;28;20043;-73
2024/01/30 19:12:27;;;;;;;17.48;15.77;;;;;;;9.05;100.00;102516.91;10079923;28;20134;-74
2024/01/30 19:17:24;;;;;;;17.75;15.95;;;;;;;9.01;100.00;102519.38;10104847;28;20050;-73
2024/01/30 19:22:20;;;;;;;16.88;15.20;;;;;;;8.99;100.00;102510.63;10099218;28;20047;-73
2024/01/30 19:27:17;;;;;;;16.00;14.48;;;;;;;8.94;100.00;102510.59;10099543;28;20069;-74
2024/01/30 19:32:13;;;;;;;15.40;14.10;;;;;;;8.89;100.00;102535.13;10104582;28;20047;-72
2024/01/30 19:37:10;;;;;;;15.05;13.95;;;;;;;8.82;100.00;102518.16;10095083;28;20042;-73
2024/01/30 19:42:06;;;;;;;14.98;13.57;;;;;;;8.77;100.00;102523.53;10099996;28;20054;-74
2024/01/30 19:47:09;;;;;;;14.48;13.27;;;;;;;8.71;100.00;102519.97;10094455;28;20131;-73
2024/01/30 19:52:07;;;;;;;13.77;12.77;;;;;;;8.71;100.00;102535.53;10097524;28;20042;-72
2024/01/30 19:57:04;;;;;;;13.52;12.63;;;;;;;8.66;100.00;102557.28;10103727;28;20513;-73
2024/01/30 20:02:01;;;;;;;14.30;13.30;;;;;;;8.59;100.00;102544.69;10107107;28;20049;-74
2024/01/30 20:06:57;;;;;;;15.13;14.02;;;;;;;8.49;100.00;102566.41;10097312;28;20057;-72
2024/01/30 20:11:54;;;;;;;16.23;15.13;;;;;;;8.45;100.00;102570.75;10086377;28;20173;-72
2024/01/30 20:16:50;;;;;;;16.88;15.50;;;;;;;8.41;100.00;102585.97;10091869;28;20399;-72
2024/01/30 20:21:47;;;;;;;18.15;16.75;;;;;;;8.34;100.00;102596.22;10084858;28;20055;-74
2024/01/30 20:26:43;;;;;;;17.83;16.52;;;;;;;8.29;100.00;102579.81;10095833;28;20066;-73
2024/01/30 20:31:40;;;;;;;18.13;16.73;;;;;;;8.26;100.00;102600.19;10090960;28;20077;-73
2024/01/30 20:36:37;;;;;;;18.08;16.67;;;;;;;8.24;100.00;102591.50;10105498;28;20051;-74
2024/01/30 20:41:43;;;;;;;18.00;16.50;;;;;;;8.20;100.00;102599.34;10103416;28;20051;-71
2024/01/30 20:46:39;;;;;;;19.70;17.98;;;;;;;8.12;100.00;102604.41;10106536;28;20458;-72
2024/01/30 20:51:36;;;;;;;19.13;17.63;;;;;;;7.92;100.00;102585.94;10105355;28;20059;-72
2024/01/30 20:56:32;;;;;;;18.40;17.10;;;;;;;7.84;100.00;102598.09;10100326;28;20051;-73
2024/01/30 21:01:29;;;;;;;18.85;17.30;;;;;;;7.74;100.00;102604.22;10101685;28;20054;-72
2024/01/30 21:06:26;;;;;;;18.15;16.67;;;;;;;7.77;100.00;102603.75;10100731;28;20503;-71
2024/01/30 21:11:22;;;;;;;17.63;16.27;;;;;;;7.69;100.00;102596.00;10112374;28;20724;-75
2024/01/30 21:16:19;;;;;;;16.98;15.68;;;;;;;7.54;100.00;102593.06;10102422;28;20047;-73
2024/01/30 21:21:16;;;;;;;17.77;16.27;;;;;;;7.40;100.00;102570.81;10117794;28;20058;-72
2024/01/30 21:26:14;;;;;;;16.88;15.57;;;;;;;7.33;100.00;102532.94;10098066;28;20050;-73
2024/01/30 21:31:13;;;;;;;16.38;15.07;;;;;;;7.21;100.00;102515.88;10103844;28;20066;-72
2024/01/30 21:36:10;;;;;;;15.70;14.20;;;;;;;7.09;100.00;102515.97;10096676;28;20051;-72
2024/01/30 21:41:06;;;;;;;15.38;14.18;;;;;;;6.97;100.00;102528.06;10104368;28;20051;-72
2024/01/30 21:46:05;;;;;;;15.63;14.50;;;;;;;6.90;100.00;102523.59;10106930;28;20449;-71
2024/01/30 21:51:02;;;;;;;15.38;14.00;;;;;;;6.86;100.00;102522.44;10106930;28;20098;-71
2024/01/30 21:55:58;;;;;;;15.52;14.30;;;;;;;6.82;100.00;102537.59;10113275;28;20043;-72
2024/01/30 22:00:55;;;;;;;15.40;14.20;;;;;;;6.81;100.00;102544.13;10107689;28;20258;-71
2024/01/30 22:05:51;;;;;;;15.02;14.02;;;;;;;6.79;100.00;102548.97;10114067;28;20038;-71
2024/01/30 22:10:48;;;;;;;15.18;14.02;;;;;;;6.79;100.00;102546.25;10112964;28;20054;-73
2024/01/30 22:15:44;;;;;;;14.32;13.30;;;;;;;6.82;100.00;102570.22;10107539;28;20498;-72